Time;durP1;ratioP1;P1;durP2;ratioP2;P2;SDS_P1;SDS_P2;PMS_P1;PMS_P2;Temp;Humidity;BMP_temperature;BMP_pressure;BME280_temperature;BME280_humidity;BME280_pressure;Samples;Min_cycle;Max_cycle;Signal;HPM_P1;HPM_P2
2023/08/04 00:00:58;;;;;;;9.77;2.42;;;16.50;99.90;;;;;;4955846;28;20039;-56
2023/08/04 00:03:24;;;;;;;8.90;2.17;;;16.60;99.90;;;;;;4959087;28;20040;-55
2023/08/04 00:05:50;;;;;;;7.28;2.22;;;16.50;99.90;;;;;;4956453;28;20043;-55
2023/08/04 00:08:15;;;;;;;5.60;2.15;;;16.50;99.90;;;;;;4955633;28;20145;-54
2023/08/04 00:10:41;;;;;;;10.18;2.00;;;16.50;99.90;;;;;;4951928;28;20058;-53
2023/08/04 00:13:07;;;;;;;6.95;1.98;;;16.50;99.90;;;;;;4937679;28;20038;-54
2023/08/04 00:15:33;;;;;;;7.35;1.77;;;16.50;99.90;;;;;;4960132;28;20453;-56
2023/08/04 00:17:58;;;;;;;4.03;1.52;;;16.40;99.90;;;;;;4938104;28;20042;-56
2023/08/04 00:20:24;;;;;;;7.25;2.10;;;16.40;99.90;;;;;;4956398;28;20410;-55
2023/08/04 00:22:50;;;;;;;5.68;1.80;;;16.40;99.90;;;;;;4954673;28;20042;-55
2023/08/04 00:25:15;;;;;;;4.68;1.80;;;16.40;99.90;;;;;;4956878;28;20390;-54
2023/08/04 00:27:41;;;;;;;6.97;1.70;;;16.40;99.90;;;;;;4957797;28;20078;-53
2023/08/04 00:30:09;;;;;;;4.75;1.70;;;16.40;99.90;;;;;;4956599;28;20058;-54
2023/08/04 00:32:35;;;;;;;9.27;1.98;;;16.30;99.90;;;;;;4958837;28;20074;-54
2023/08/04 00:35:03;;;;;;;2.72;1.50;;;16.30;99.90;;;;;;4958845;28;20086;-55
2023/08/04 00:37:29;;;;;;;3.80;1.73;;;16.30;99.90;;;;;;4943527;28;20694;-55
2023/08/04 00:39:54;;;;;;;8.27;1.98;;;16.30;99.90;;;;;;4958114;28;20043;-56
2023/08/04 00:42:20;;;;;;;7.63;1.70;;;16.20;99.90;;;;;;4957890;28;20438;-53
2023/08/04 00:44:46;;;;;;;7.05;1.95;;;16.20;99.90;;;;;;4956604;28;20089;-55
2023/08/04 00:47:12;;;;;;;7.20;1.90;;;16.20;99.90;;;;;;4957381;28;20540;-54
2023/08/04 00:49:39;;;;;;;4.35;1.83;;;16.10;99.90;;;;;;4945039;28;20055;-53
2023/08/04 00:52:05;;;;;;;4.25;1.90;;;16.10;99.90;;;;;;4942956;28;20055;-56
2023/08/04 00:54:31;;;;;;;6.70;2.03;;;16.10;99.90;;;;;;4957917;28;20051;-55
2023/08/04 00:56:58;;;;;;;12.02;2.70;;;16.10;99.90;;;;;;4956009;28;20172;-55
2023/08/04 00:59:24;;;;;;;4.63;2.00;;;16.10;99.90;;;;;;4934965;28;20057;-54
2023/08/04 01:01:49;;;;;;;5.82;2.10;;;16.10;99.90;;;;;;4947927;28;20031;-54
2023/08/04 01:04:17;;;;;;;8.05;2.17;;;16.10;99.90;;;;;;4931705;28;20043;-53
2023/08/04 01:07:08;;;;;;;6.25;1.95;;;16.10;99.90;;;;;;4936162;28;20085;-56
2023/08/04 01:09:46;;;;;;;7.55;2.10;;;16.10;99.90;;;;;;4948292;28;20073;-53
2023/08/04 01:12:14;;;;;;;7.20;2.10;;;16.10;99.90;;;;;;4955111;28;20053;-53
2023/08/04 01:14:42;;;;;;;8.60;2.25;;;16.10;99.90;;;;;;4954097;28;20061;-56
2023/08/04 01:17:28;;;;;;;6.32;2.15;;;16.10;99.90;;;;;;4950635;28;20272;-55
2023/08/04 01:19:54;;;;;;;6.57;2.20;;;16.10;99.90;;;;;;4933366;28;20180;-55
2023/08/04 01:22:21;;;;;;;6.32;2.22;;;16.10;99.90;;;;;;4950553;28;20050;-55
2023/08/04 01:24:47;;;;;;;9.45;2.20;;;16.10;99.90;;;;;;4952735;28;20069;-56
2023/08/04 01:27:17;;;;;;;9.27;2.15;;;16.10;99.90;;;;;;4953853;28;20452;-54
2023/08/04 01:29:45;;;;;;;6.18;1.80;;;16.10;99.90;;;;;;4951646;28;20137;-54
2023/08/04 01:32:11;;;;;;;8.93;1.95;;;16.10;99.90;;;;;;4956781;28;20046;-54
2023/08/04 01:34:40;;;;;;;4.78;1.60;;;16.10;99.90;;;;;;4955002;28;20067;-52
2023/08/04 01:37:06;;;;;;;7.05;2.08;;;16.10;99.90;;;;;;4953575;28;20073;-55
2023/08/04 01:39:31;;;;;;;7.30;1.98;;;16.10;99.90;;;;;;4952158;28;20034;-53
2023/08/04 01:41:57;;;;;;;8.57;2.10;;;16.10;99.90;;;;;;4955443;28;20047;-54
2023/08/04 01:44:23;;;;;;;4.97;2.00;;;16.10;99.90;;;;;;4938211;28;20109;-55
2023/08/04 01:46:48;;;;;;;4.60;2.10;;;16.10;99.90;;;;;;4954549;28;20174;-55
2023/08/04 01:49:14;;;;;;;7.90;1.90;;;16.10;99.90;;;;;;4954955;28;20055;-54
2023/08/04 01:51:40;;;;;;;5.10;2.28;;;16.10;99.90;;;;;;4952412;28;20074;-55
2023/08/04 01:54:06;;;;;;;5.30;1.83;;;16.10;99.90;;;;;;4953936;28;20041;-56
2023/08/04 01:56:32;;;;;;;10.77;2.30;;;16.10;99.90;;;;;;4937567;28;20043;-55
2023/08/04 01:58:57;;;;;;;5.63;1.90;;;16.10;99.90;;;;;;4957046;28;20083;-55
2023/08/04 02:01:23;;;;;;;8.88;2.17;;;16.10;99.90;;;;;;4957982;28;20039;-54
2023/08/04 02:03:49;;;;;;;9.30;1.92;;;16.10;99.90;;;;;;4957469;28;20039;-55
2023/08/04 02:06:15;;;;;;;6.03;1.90;;;16.10;99.90;;;;;;4956111;28;20085;-55
2023/08/04 02:08:41;;;;;;;5.68;1.77;;;16.10;99.90;;;;;;4954247;28;20617;-55
2023/08/04 02:11:07;;;;;;;10.57;2.10;;;16.10;99.90;;;;;;4955025;28;20054;-54
2023/08/04 02:13:33;;;;;;;6.35;2.00;;;16.10;99.90;;;;;;4956894;28;20643;-53
2023/08/04 02:15:59;;;;;;;10.75;2.17;;;16.10;99.90;;;;;;4942842;28;20043;-54
2023/08/04 02:18:25;;;;;;;10.80;2.47;;;16.10;99.90;;;;;;4955873;28;20047;-54
2023/08/04 02:20:51;;;;;;;6.80;1.85;;;16.10;99.90;;;;;;4955386;28;20911;-54
2023/08/04 02:23:16;;;;;;;6.55;2.30;;;16.10;99.90;;;;;;4957147;28;20049;-55
2023/08/04 02:25:42;;;;;;;11.10;2.35;;;16.10;99.90;;;;;;4955887;28;20038;-54
2023/08/04 02:28:08;;;;;;;7.10;2.20;;;16.10;99.90;;;;;;4956215;28;20573;-54
2023/08/04 02:30:33;;;;;;;8.13;2.25;;;16.10;99.90;;;;;;4954508;28;20043;-53
2023/08/04 02:32:59;;;;;;;6.57;2.30;;;16.10;99.90;;;;;;4957467;28;20509;-51
2023/08/04 02:35:25;;;;;;;8.35;2.20;;;16.10;99.90;;;;;;4955896;28;20132;-52
2023/08/04 02:37:50;;;;;;;7.05;2.22;;;16.10;99.90;;;;;;4953519;28;20031;-55
2023/08/04 02:40:16;;;;;;;5.35;1.77;;;16.10;99.90;;;;;;4955905;28;20030;-54
2023/08/04 02:42:42;;;;;;;5.93;2.03;;;16.10;99.90;;;;;;4954967;28;20125;-52
2023/08/04 02:45:08;;;;;;;5.55;2.13;;;16.00;99.90;;;;;;4954140;28;20094;-50
2023/08/04 02:47:36;;;;;;;7.05;2.03;;;16.10;99.90;;;;;;4955205;28;20063;-55
2023/08/04 02:50:04;;;;;;;7.38;2.13;;;16.00;99.90;;;;;;4956022;28;20042;-53
2023/08/04 02:52:30;;;;;;;5.18;2.03;;;16.00;99.90;;;;;;4938798;28;20102;-53
2023/08/04 02:54:55;;;;;;;3.58;1.80;;;16.00;99.90;;;;;;4954857;28;20043;-55
2023/08/04 02:57:21;;;;;;;5.28;1.85;;;16.00;99.90;;;;;;4954026;28;20430;-52
2023/08/04 02:59:47;;;;;;;7.78;1.90;;;16.00;99.90;;;;;;4956129;28;20042;-50
2023/08/04 03:02:13;;;;;;;6.15;2.15;;;16.00;99.90;;;;;;4953694;28;20149;-53
2023/08/04 03:04:39;;;;;;;7.13;2.28;;;16.00;99.90;;;;;;4937427;28;20066;-53
2023/08/04 03:07:05;;;;;;;7.78;2.00;;;16.00;99.90;;;;;;4958284;28;20163;-53
2023/08/04 03:09:31;;;;;;;7.78;2.20;;;15.90;99.90;;;;;;4953142;28;20053;-52
2023/08/04 03:11:57;;;;;;;7.70;2.15;;;15.90;99.90;;;;;;4940130;28;20050;-54
2023/08/04 03:14:23;;;;;;;4.82;1.90;;;15.90;99.90;;;;;;4956178;28;20401;-53
2023/08/04 03:16:50;;;;;;;2.88;1.77;;;15.90;99.90;;;;;;4943124;28;20038;-54
2023/08/04 03:19:17;;;;;;;5.78;1.92;;;15.80;99.90;;;;;;4938663;28;20046;-52
2023/08/04 03:21:43;;;;;;;5.18;2.20;;;15.80;99.90;;;;;;4955431;28;20051;-52
2023/08/04 03:24:09;;;;;;;5.70;2.38;;;15.80;99.90;;;;;;4954534;28;20055;-51
2023/08/04 03:26:35;;;;;;;6.00;2.38;;;15.70;99.90;;;;;;4956502;28;20764;-52
2023/08/04 03:29:00;;;;;;;4.22;2.30;;;15.80;99.90;;;;;;4955459;28;20109;-53
2023/08/04 03:31:27;;;;;;;4.78;2.47;;;15.70;99.90;;;;;;4942773;28;20074;-51
2023/08/04 03:33:52;;;;;;;6.32;2.10;;;15.70;99.90;;;;;;4954262;28;20409;-55
2023/08/04 03:36:18;;;;;;;4.00;2.33;;;15.70;99.90;;;;;;4952433;28;20038;-55
2023/08/04 03:38:44;;;;;;;5.55;2.10;;;15.60;99.90;;;;;;4953788;28;20052;-54
2023/08/04 03:41:09;;;;;;;5.55;2.30;;;15.60;99.90;;;;;;4956138;28;20417;-53
2023/08/04 03:43:35;;;;;;;4.00;2.10;;;15.60;99.90;;;;;;4935991;28;20137;-55
2023/08/04 03:46:01;;;;;;;7.85;2.63;;;15.60;99.90;;;;;;4955497;28;20173;-53
2023/08/04 03:48:26;;;;;;;7.03;2.63;;;15.50;99.90;;;;;;4952913;28;20066;-53
2023/08/04 03:50:52;;;;;;;7.60;2.70;;;15.50;99.90;;;;;;4953016;28;20146;-54
2023/08/04 03:53:18;;;;;;;9.45;3.15;;;15.50;99.90;;;;;;4955484;28;20050;-55
2023/08/04 03:55:43;;;;;;;8.27;2.15;;;15.50;99.90;;;;;;4957093;28;20367;-54
2023/08/04 03:58:09;;;;;;;4.30;1.83;;;15.50;99.90;;;;;;4953113;28;20058;-54
2023/08/04 04:00:35;;;;;;;4.75;1.83;;;15.50;99.90;;;;;;4952588;28;20046;-54
2023/08/04 04:03:00;;;;;;;4.13;1.70;;;15.50;99.90;;;;;;4952476;28;20042;-53
2023/08/04 04:05:26;;;;;;;4.63;1.80;;;15.50;99.90;;;;;;4949310;28;20050;-54
2023/08/04 04:07:52;;;;;;;3.25;1.70;;;15.60;99.90;;;;;;4951920;28;20454;-53
2023/08/04 04:10:17;;;;;;;5.85;1.90;;;15.60;99.90;;;;;;4952460;28;20042;-54
2023/08/04 04:12:43;;;;;;;3.58;1.85;;;15.50;99.90;;;;;;4950794;28;20050;-54
2023/08/04 04:15:09;;;;;;;5.28;2.10;;;15.60;99.90;;;;;;4951271;28;21030;-54
2023/08/04 04:17:36;;;;;;;3.05;1.77;;;15.60;99.90;;;;;;4936369;28;20057;-54
2023/08/04 04:20:02;;;;;;;4.22;2.25;;;15.60;99.90;;;;;;4934123;28;20101;-53
2023/08/04 04:22:30;;;;;;;3.63;2.20;;;15.60;99.90;;;;;;4952210;28;20045;-55
2023/08/04 04:24:56;;;;;;;4.97;2.08;;;15.60;99.90;;;;;;4951938;28;20039;-54
2023/08/04 04:27:22;;;;;;;3.97;2.25;;;15.60;99.90;;;;;;4947719;28;20077;-53
2023/08/04 04:29:47;;;;;;;5.82;2.38;;;15.60;99.90;;;;;;4952266;28;20132;-52
2023/08/04 04:32:13;;;;;;;6.22;2.50;;;15.60;99.90;;;;;;4938517;28;20077;-53
2023/08/04 04:34:40;;;;;;;4.43;2.65;;;15.60;99.90;;;;;;4941681;28;20045;-54
2023/08/04 04:37:05;;;;;;;4.78;2.17;;;15.60;99.90;;;;;;4949449;28;20449;-55
2023/08/04 04:39:31;;;;;;;7.28;3.05;;;15.60;99.90;;;;;;4932674;28;20053;-51
2023/08/04 04:41:57;;;;;;;5.63;2.15;;;15.60;99.90;;;;;;4934398;28;20047;-54
2023/08/04 04:44:23;;;;;;;3.72;1.92;;;15.70;99.90;;;;;;4934610;28;20130;-53
2023/08/04 04:46:49;;;;;;;6.55;2.50;;;15.70;99.90;;;;;;4951015;28;20035;-53
2023/08/04 04:49:16;;;;;;;3.17;2.05;;;15.70;99.90;;;;;;4954530;28;20069;-53
2023/08/04 04:51:42;;;;;;;6.32;2.08;;;15.70;99.90;;;;;;4951510;28;20429;-55
2023/08/04 04:54:08;;;;;;;8.57;2.50;;;15.70;99.90;;;;;;4948967;28;20461;-53
2023/08/04 04:56:34;;;;;;;3.80;2.13;;;15.80;99.90;;;;;;4951045;28;20047;-53
2023/08/04 04:58:59;;;;;;;2.75;1.95;;;15.80;99.90;;;;;;4949600;28;20588;-54
2023/08/04 05:01:25;;;;;;;4.78;2.20;;;15.80;99.90;;;;;;4950870;28;20043;-54
2023/08/04 05:03:51;;;;;;;4.57;2.88;;;15.80;99.90;;;;;;4948854;28;20862;-55
2023/08/04 05:06:17;;;;;;;3.42;2.58;;;15.80;99.90;;;;;;4949646;28;20046;-56
2023/08/04 05:08:42;;;;;;;4.82;2.53;;;15.90;99.90;;;;;;4952057;28;20042;-53
2023/08/04 05:11:08;;;;;;;4.00;2.20;;;15.90;99.90;;;;;;4952599;28;20042;-54
2023/08/04 05:13:34;;;;;;;4.70;2.22;;;15.90;99.90;;;;;;4953531;28;20043;-54
2023/08/04 05:15:59;;;;;;;6.13;2.40;;;15.90;99.90;;;;;;4952791;28;20806;-54
2023/08/04 05:18:25;;;;;;;2.58;2.13;;;15.90;99.90;;;;;;4936154;28;20142;-53
2023/08/04 05:20:51;;;;;;;5.07;2.13;;;16.00;99.90;;;;;;4951620;28;20057;-55
2023/08/04 05:23:16;;;;;;;5.18;2.42;;;15.90;99.90;;;;;;4931142;28;20060;-53
2023/08/04 05:25:42;;;;;;;6.85;2.40;;;16.00;99.90;;;;;;4932627;28;20039;-56
2023/08/04 05:28:28;;;;;;;3.50;2.45;;;16.00;99.90;;;;;;4939365;28;20050;-54
2023/08/04 05:30:58;;;;;;;5.75;2.38;;;16.00;99.90;;;;;;4951422;28;20046;-53
2023/08/04 05:33:25;;;;;;;6.30;2.60;;;16.10;99.90;;;;;;4950187;28;20129;-54
2023/08/04 05:35:51;;;;;;;5.80;2.80;;;16.10;99.90;;;;;;4941874;28;20520;-51
2023/08/04 05:38:17;;;;;;;6.07;2.50;;;16.10;99.90;;;;;;4948634;28;20050;-53
2023/08/04 05:40:45;;;;;;;4.18;2.30;;;16.10;99.90;;;;;;4933928;28;20487;-55
2023/08/04 05:43:12;;;;;;;3.13;2.50;;;16.10;99.90;;;;;;4944343;28;20425;-55
2023/08/04 05:45:39;;;;;;;5.70;2.33;;;16.20;99.90;;;;;;4950069;28;20199;-55
2023/08/04 05:48:05;;;;;;;4.22;2.38;;;16.20;99.90;;;;;;4948573;28;20177;-54
2023/08/04 05:50:31;;;;;;;5.22;2.53;;;16.20;99.90;;;;;;4948851;28;20046;-54
2023/08/04 05:52:58;;;;;;;3.70;2.20;;;16.30;99.90;;;;;;4949578;28;20043;-53
2023/08/04 05:55:24;;;;;;;3.20;2.33;;;16.30;99.90;;;;;;4949718;28;21285;-55
2023/08/04 05:57:50;;;;;;;6.53;2.40;;;16.30;99.90;;;;;;4918967;28;20501;-53
2023/08/04 06:00:16;;;;;;;5.70;2.45;;;16.30;99.90;;;;;;4948565;28;20035;-56
2023/08/04 06:02:43;;;;;;;5.90;2.80;;;16.30;99.90;;;;;;4948738;28;20054;-54
2023/08/04 06:05:09;;;;;;;4.65;2.33;;;16.40;99.90;;;;;;4948110;28;21855;-55
2023/08/04 06:07:35;;;;;;;5.35;2.45;;;16.40;99.90;;;;;;4950408;28;20089;-55
2023/08/04 06:10:01;;;;;;;5.05;2.15;;;16.40;99.90;;;;;;4947099;28;20072;-54
2023/08/04 06:12:27;;;;;;;2.53;1.90;;;16.50;99.90;;;;;;4950611;28;20054;-54
2023/08/04 06:14:53;;;;;;;5.53;2.17;;;16.50;99.90;;;;;;4952238;28;20051;-54
2023/08/04 06:17:18;;;;;;;7.10;2.35;;;16.50;99.90;;;;;;4949179;28;20043;-55
2023/08/04 06:19:44;;;;;;;3.47;2.17;;;16.60;99.90;;;;;;4950956;28;20081;-55
2023/08/04 06:22:13;;;;;;;4.82;2.13;;;16.60;99.90;;;;;;4931630;28;20147;-55
2023/08/04 06:24:38;;;;;;;3.78;1.92;;;16.60;99.90;;;;;;4949508;28;20437;-55
2023/08/04 06:27:04;;;;;;;3.42;2.15;;;16.70;99.90;;;;;;4948281;28;20086;-54
2023/08/04 06:29:30;;;;;;;4.75;2.15;;;16.70;99.90;;;;;;4933079;28;22403;-54
2023/08/04 06:31:56;;;;;;;4.60;2.30;;;16.70;99.90;;;;;;4929659;28;20450;-54
2023/08/04 06:34:22;;;;;;;5.82;2.20;;;16.80;99.90;;;;;;4948256;28;20049;-54
2023/08/04 06:36:48;;;;;;;3.15;2.08;;;16.80;99.90;;;;;;4947892;28;20051;-54
2023/08/04 06:39:13;;;;;;;4.78;2.20;;;16.90;99.90;;;;;;4942326;28;20046;-55
2023/08/04 06:41:41;;;;;;;5.43;2.33;;;16.90;99.90;;;;;;4946240;28;20679;-55
2023/08/04 06:44:07;;;;;;;5.32;2.30;;;17.00;99.90;;;;;;4948311;28;20397;-54
2023/08/04 06:46:32;;;;;;;10.40;2.58;;;17.10;99.90;;;;;;4955185;28;20038;-55
2023/08/04 06:48:58;;;;;;;9.13;2.40;;;17.10;99.90;;;;;;4934267;28;20058;-54
2023/08/04 06:51:24;;;;;;;6.35;2.80;;;17.10;99.90;;;;;;4933458;28;20383;-53
2023/08/04 06:53:49;;;;;;;7.90;2.38;;;17.20;99.90;;;;;;4924360;28;20446;-55
2023/08/04 06:56:15;;;;;;;4.38;2.25;;;17.20;99.90;;;;;;4920469;28;20509;-55
2023/08/04 06:58:41;;;;;;;6.28;2.30;;;17.20;99.90;;;;;;4936645;28;20950;-54
2023/08/04 07:01:07;;;;;;;3.65;2.10;;;17.30;99.90;;;;;;4923751;28;20417;-55
2023/08/04 07:03:34;;;;;;;7.07;2.30;;;17.30;99.90;;;;;;4934576;28;20042;-53
2023/08/04 07:06:00;;;;;;;6.70;2.97;;;17.40;99.90;;;;;;4938928;28;20275;-52
2023/08/04 07:08:26;;;;;;;4.55;2.30;;;17.40;99.90;;;;;;4919819;28;20705;-51
2023/08/04 07:10:52;;;;;;;6.00;2.10;;;17.40;99.90;;;;;;4935161;28;20031;-54
2023/08/04 07:13:18;;;;;;;4.38;2.20;;;17.40;99.90;;;;;;4934110;28;20039;-53
2023/08/04 07:15:57;;;;;;;4.15;2.10;;;17.40;99.90;;;;;;4928365;28;20046;-52
2023/08/04 07:18:23;;;;;;;4.47;2.25;;;17.50;99.90;;;;;;4933046;28;20509;-51
2023/08/04 07:20:48;;;;;;;4.32;2.10;;;17.50;99.90;;;;;;4933095;28;20122;-56
2023/08/04 07:23:14;;;;;;;7.63;2.28;;;17.50;99.90;;;;;;4926438;28;20129;-54
2023/08/04 07:25:40;;;;;;;8.40;2.50;;;17.50;99.90;;;;;;4929440;28;20043;-55
2023/08/04 07:28:06;;;;;;;6.57;2.45;;;17.50;99.90;;;;;;4924044;28;20040;-54
2023/08/04 07:30:37;;;;;;;10.00;2.70;;;17.50;99.90;;;;;;4925453;28;20066;-54
2023/08/04 07:33:06;;;;;;;96.15;23.75;;;17.50;99.90;;;;;;4932233;28;20490;-56
2023/08/04 07:35:32;;;;;;;4.53;2.20;;;17.50;99.90;;;;;;4931729;28;20142;-52
2023/08/04 07:37:58;;;;;;;8.23;2.72;;;17.60;99.90;;;;;;4932887;28;20090;-54
2023/08/04 07:40:24;;;;;;;6.97;2.30;;;17.60;99.90;;;;;;4932642;28;20481;-53
2023/08/04 07:42:49;;;;;;;5.90;2.40;;;17.70;99.90;;;;;;4934082;28;20091;-53
2023/08/04 07:45:15;;;;;;;5.40;2.30;;;17.80;99.90;;;;;;4932654;28;20070;-54
2023/08/04 07:47:41;;;;;;;9.35;2.28;;;17.80;99.90;;;;;;4904136;29;20426;-51
2023/08/04 07:50:07;;;;;;;7.55;2.22;;;17.90;99.90;;;;;;4935153;28;20066;-53
2023/08/04 07:52:33;;;;;;;6.22;2.20;;;18.00;99.90;;;;;;4937170;28;20062;-53
2023/08/04 07:54:58;;;;;;;7.15;2.35;;;18.10;99.90;;;;;;4935717;28;20040;-53
2023/08/04 07:57:24;;;;;;;11.57;2.30;;;18.10;99.90;;;;;;4936326;28;20063;-52
2023/08/04 07:59:50;;;;;;;7.07;2.40;;;18.10;99.90;;;;;;4936953;28;20078;-52
2023/08/04 08:02:16;;;;;;;7.97;2.33;;;18.10;99.90;;;;;;4933070;28;20043;-52
2023/08/04 08:04:42;;;;;;;6.63;2.42;;;18.00;99.90;;;;;;4917501;28;20106;-53
2023/08/04 08:07:08;;;;;;;6.88;2.50;;;17.90;99.90;;;;;;4932344;28;20633;-54
2023/08/04 08:09:33;;;;;;;10.82;2.20;;;17.80;99.90;;;;;;4917775;28;20086;-53
2023/08/04 08:11:59;;;;;;;11.05;2.45;;;17.80;99.90;;;;;;4938367;28;20035;-53
2023/08/04 08:14:25;;;;;;;9.25;2.33;;;17.70;99.90;;;;;;4938134;28;20039;-52
2023/08/04 08:16:51;;;;;;;7.10;2.22;;;17.80;99.90;;;;;;4904753;28;20035;-54
2023/08/04 08:19:17;;;;;;;6.57;2.33;;;17.80;99.90;;;;;;4938312;28;20047;-52
2023/08/04 08:21:43;;;;;;;6.47;2.85;;;17.90;99.90;;;;;;4939769;28;20054;-52
2023/08/04 08:24:09;;;;;;;6.63;2.60;;;18.00;99.90;;;;;;4937013;28;20046;-55
2023/08/04 08:26:35;;;;;;;6.10;2.00;;;18.10;99.90;;;;;;4938709;28;20750;-52
2023/08/04 08:29:04;;;;;;;10.23;2.35;;;18.10;99.90;;;;;;4943425;28;20066;-52
2023/08/04 08:31:30;;;;;;;5.40;2.35;;;18.20;99.90;;;;;;4935153;28;20035;-51
2023/08/04 08:33:56;;;;;;;6.78;2.58;;;18.20;99.90;;;;;;4937705;28;20043;-52
2023/08/04 08:36:21;;;;;;;7.32;2.22;;;18.10;99.90;;;;;;4936969;28;20047;-53
2023/08/04 08:38:47;;;;;;;6.55;2.55;;;18.20;99.90;;;;;;4937831;28;20101;-53
2023/08/04 08:41:13;;;;;;;6.43;1.95;;;18.20;99.90;;;;;;4939779;28;20046;-52
2023/08/04 08:43:44;;;;;;;8.75;2.35;;;18.20;99.90;;;;;;4932496;28;20048;-54
2023/08/04 08:46:11;;;;;;;10.45;2.45;;;18.20;99.90;;;;;;4910757;28;20074;-51
2023/08/04 08:48:38;;;;;;;6.00;1.75;;;18.30;99.90;;;;;;4940206;28;20070;-54
2023/08/04 08:51:10;;;;;;;7.47;2.42;;;18.40;99.90;;;;;;4949097;28;23094;-54
2023/08/04 08:53:38;;;;;;;3.67;1.75;;;18.50;99.90;;;;;;4909459;28;20137;-54
2023/08/04 08:56:04;;;;;;;8.93;1.85;;;18.70;99.90;;;;;;4951029;28;20108;-52
2023/08/04 08:58:32;;;;;;;5.65;2.10;;;18.80;99.90;;;;;;4949831;28;20401;-55
2023/08/04 09:00:59;;;;;;;3.85;1.38;;;18.80;99.90;;;;;;4949487;28;20046;-54
2023/08/04 09:03:25;;;;;;;5.82;1.40;;;19.00;99.90;;;;;;4948208;28;20540;-54
2023/08/04 09:05:51;;;;;;;5.60;1.70;;;19.00;99.90;;;;;;4950041;28;20485;-55
2023/08/04 09:08:16;;;;;;;3.75;1.30;;;19.10;99.90;;;;;;4949740;28;20047;-52
2023/08/04 09:10:44;;;;;;;4.18;1.50;;;19.20;99.90;;;;;;4950207;28;20042;-55
2023/08/04 09:13:12;;;;;;;4.18;1.55;;;19.20;99.90;;;;;;4943557;28;20061;-55
2023/08/04 09:15:50;;;;;;;5.82;1.40;;;19.20;99.90;;;;;;4949515;28;20054;-56
2023/08/04 09:18:33;;;;;;;7.15;1.63;;;19.20;99.90;;;;;;4923764;28;20521;-54
2023/08/04 09:21:08;;;;;;;9.18;2.08;;;19.20;99.90;;;;;;4949781;28;20125;-53
2023/08/04 09:23:37;;;;;;;7.82;1.85;;;19.00;99.90;;;;;;4947010;28;20053;-55
2023/08/04 09:26:03;;;;;;;5.90;1.90;;;18.90;99.90;;;;;;4940578;28;20042;-53
2023/08/04 09:28:29;;;;;;;6.97;1.95;;;18.80;99.90;;;;;;4931999;28;20093;-53
2023/08/04 09:31:08;;;;;;;4.90;1.70;;;18.70;99.90;;;;;;4945267;28;21395;-55
2023/08/04 09:33:38;;;;;;;6.22;2.35;;;18.70;99.90;;;;;;4949821;28;20405;-54
2023/08/04 09:36:11;;;;;;;14.57;2.90;;;18.70;99.90;;;;;;4949439;28;20050;-54
2023/08/04 09:38:38;;;;;;;9.70;2.65;;;18.70;99.90;;;;;;4943673;28;20054;-55
2023/08/04 09:41:15;;;;;;;8.10;2.33;;;18.70;99.90;;;;;;4949102;28;20043;-56
2023/08/04 09:43:45;;;;;;;9.60;2.33;;;18.70;99.90;;;;;;4944849;28;20046;-56
2023/08/04 09:46:10;;;;;;;6.00;2.08;;;18.80;99.90;;;;;;4946806;28;20039;-54
2023/08/04 09:48:36;;;;;;;7.38;1.50;;;18.90;99.90;;;;;;4928811;28;20097;-54
2023/08/04 09:51:10;;;;;;;6.97;2.08;;;19.00;99.90;;;;;;4931639;28;20055;-54
2023/08/04 09:53:44;;;;;;;8.98;2.00;;;19.10;99.90;;;;;;4948598;28;20214;-54
2023/08/04 09:56:16;;;;;;;5.93;1.85;;;19.20;99.90;;;;;;4948935;28;20058;-53
2023/08/04 09:58:43;;;;;;;6.47;2.00;;;19.50;99.90;;;;;;4944264;28;20738;-55
2023/08/04 10:01:09;;;;;;;5.70;1.45;;;19.70;99.90;;;;;;4947385;28;20951;-55
2023/08/04 10:03:40;;;;;;;7.18;1.80;;;19.80;99.90;;;;;;4948941;28;20224;-55
2023/08/04 10:06:06;;;;;;;4.18;1.52;;;20.00;99.90;;;;;;4944611;28;20043;-54
2023/08/04 10:08:36;;;;;;;6.85;1.70;;;20.10;99.90;;;;;;4932945;28;20050;-54
2023/08/04 10:11:02;;;;;;;2.85;1.35;;;20.10;99.90;;;;;;4948331;28;20142;-55
2023/08/04 10:13:34;;;;;;;5.80;1.05;;;20.10;99.90;;;;;;4919933;28;20453;-52
2023/08/04 10:16:03;;;;;;;3.28;1.48;;;20.00;99.90;;;;;;4942833;28;20047;-55
2023/08/04 10:18:49;;;;;;;3.38;1.27;;;19.80;99.90;;;;;;4950948;28;20496;-55
2023/08/04 10:21:18;;;;;;;4.93;1.35;;;20.00;99.90;;;;;;4946762;28;20133;-55
2023/08/04 10:23:43;;;;;;;3.03;1.15;;;20.40;99.90;;;;;;4948361;28;20045;-54
2023/08/04 10:26:13;;;;;;;4.07;1.25;;;20.30;99.90;;;;;;4929031;28;20483;-51
2023/08/04 10:29:01;;;;;;;4.68;1.33;;;20.40;99.90;;;;;;4949680;28;20051;-55
2023/08/04 10:31:55;;;;;;;6.03;1.40;;;20.60;99.90;;;;;;4948386;28;20136;-54
2023/08/04 10:34:28;;;;;;;5.47;1.30;;;20.80;99.90;;;;;;4946636;28;20051;-51
2023/08/04 10:37:14;;;;;;;4.03;1.20;;;20.90;99.90;;;;;;4951604;28;20050;-52
2023/08/04 10:39:57;;;;;;;1.98;1.10;;;21.10;99.90;;;;;;4953672;28;20038;-52
2023/08/04 10:42:30;;;;;;;4.47;1.17;;;21.20;99.90;;;;;;4934585;28;20054;-53
2023/08/04 10:45:09;;;;;;;2.95;1.08;;;21.00;99.90;;;;;;4951024;28;20042;-53
2023/08/04 10:47:42;;;;;;;2.95;1.20;;;20.80;99.90;;;;;;4950752;28;20063;-53
2023/08/04 10:50:08;;;;;;;2.03;1.00;;;20.80;99.90;;;;;;4929118;28;20059;-52
2023/08/04 10:52:34;;;;;;;3.95;1.30;;;20.80;99.90;;;;;;4947014;28;20584;-51
2023/08/04 10:55:03;;;;;;;5.07;1.20;;;20.90;99.90;;;;;;4942980;28;20038;-53
2023/08/04 10:57:34;;;;;;;3.55;0.95;;;20.90;99.90;;;;;;4947488;28;20051;-53
2023/08/04 11:00:07;;;;;;;7.10;1.17;;;21.00;99.90;;;;;;4947967;28;20807;-55
2023/08/04 11:02:34;;;;;;;3.45;1.08;;;21.00;99.90;;;;;;4950220;28;20192;-55
2023/08/04 11:05:03;;;;;;;2.78;1.15;;;21.10;99.90;;;;;;4945271;28;20442;-54
2023/08/04 11:07:29;;;;;;;3.85;1.10;;;21.20;99.90;;;;;;4938915;28;20038;-53
2023/08/04 11:09:55;;;;;;;3.58;1.10;;;21.40;99.90;;;;;;4935879;28;20045;-54
2023/08/04 11:12:21;;;;;;;2.63;1.30;;;21.50;99.90;;;;;;4949062;28;20047;-54
2023/08/04 11:14:49;;;;;;;3.50;1.05;;;21.60;99.90;;;;;;4953018;28;20907;-52
2023/08/04 11:17:20;;;;;;;4.18;1.20;;;21.80;99.90;;;;;;4955163;28;20047;-54
2023/08/04 11:19:50;;;;;;;4.45;1.27;;;22.00;99.90;;;;;;4956406;28;20085;-55
2023/08/04 11:22:18;;;;;;;3.58;0.90;;;22.20;99.90;;;;;;4954389;28;20477;-52
2023/08/04 11:24:44;;;;;;;3.92;1.30;;;22.20;99.90;;;;;;4940448;28;20129;-55
2023/08/04 11:27:12;;;;;;;3.90;1.27;;;22.30;99.90;;;;;;4955455;28;20039;-55
2023/08/04 11:29:38;;;;;;;5.00;1.38;;;22.40;99.90;;;;;;4959209;28;20129;-55
2023/08/04 11:32:17;;;;;;;5.53;1.33;;;22.60;99.90;;;;;;4943454;28;20084;-54
2023/08/04 11:34:43;;;;;;;5.05;1.20;;;22.70;99.90;;;;;;4956420;28;20177;-54
2023/08/04 11:37:09;;;;;;;2.75;1.00;;;22.80;99.90;;;;;;4941635;28;20051;-54
2023/08/04 11:39:37;;;;;;;5.05;1.15;;;22.90;99.90;;;;;;4936470;28;20069;-56
2023/08/04 11:42:04;;;;;;;3.25;1.10;;;23.00;99.90;;;;;;4954032;28;20146;-54
2023/08/04 11:44:30;;;;;;;3.15;1.08;;;23.00;99.90;;;;;;4939985;28;20540;-55
2023/08/04 11:46:56;;;;;;;2.47;1.10;;;23.20;99.90;;;;;;4939865;28;20131;-54
2023/08/04 11:49:23;;;;;;;4.78;1.48;;;23.40;99.90;;;;;;4922550;28;20142;-54
2023/08/04 11:51:49;;;;;;;7.72;1.50;;;23.30;99.90;;;;;;4923484;28;20055;-54
2023/08/04 11:54:23;;;;;;;3.83;1.30;;;23.20;99.90;;;;;;4940276;28;20486;-51
2023/08/04 11:56:59;;;;;;;4.75;1.50;;;23.00;99.90;;;;;;4937229;28;20047;-56
2023/08/04 11:59:25;;;;;;;4.53;1.50;;;22.90;99.90;;;;;;4923404;28;20125;-54
2023/08/04 12:02:04;;;;;;;2.90;1.30;;;22.80;99.90;;;;;;4940490;28;20039;-54
2023/08/04 12:04:30;;;;;;;5.82;1.25;;;22.80;99.90;;;;;;4939895;28;20114;-55
2023/08/04 12:07:06;;;;;;;3.78;1.10;;;22.80;99.90;;;;;;4941883;28;20075;-53
2023/08/04 12:09:33;;;;;;;2.65;1.30;;;23.00;99.90;;;;;;4939489;28;20074;-54
2023/08/04 12:11:59;;;;;;;4.65;1.50;;;23.00;99.90;;;;;;4939895;28;20129;-56
2023/08/04 12:14:28;;;;;;;4.13;1.55;;;23.00;99.90;;;;;;4939567;28;20043;-52
2023/08/04 12:17:03;;;;;;;8.65;1.58;;;22.90;99.90;;;;;;4935531;28;20453;-52
2023/08/04 12:19:31;;;;;;;3.65;1.20;;;22.80;99.90;;;;;;4935815;28;20043;-54
2023/08/04 12:22:03;;;;;;;4.10;1.30;;;22.70;99.90;;;;;;4918779;29;20070;-55
2023/08/04 12:24:29;;;;;;;;;;;22.80;99.90;;;;;;4936073;28;20699;-55
2023/08/04 12:26:56;;;;;;;4.22;1.30;;;22.80;99.90;;;;;;4938191;28;19926;-51
2023/08/04 12:29:21;;;;;;;4.43;1.20;;;22.70;99.90;;;;;;4936914;28;20040;-56
2023/08/04 12:31:47;;;;;;;4.38;1.45;;;22.70;99.90;;;;;;4934372;28;20043;-55
2023/08/04 12:34:13;;;;;;;6.18;1.58;;;22.60;99.90;;;;;;4937229;28;20051;-55
2023/08/04 12:36:40;;;;;;;3.03;1.30;;;22.60;99.90;;;;;;4936138;28;20270;-52
2023/08/04 12:39:08;;;;;;;2.88;1.20;;;22.60;99.90;;;;;;4935333;28;20506;-53
2023/08/04 12:41:35;;;;;;;4.13;1.30;;;22.60;99.90;;;;;;4905352;29;20610;-52
2023/08/04 12:44:00;;;;;;;5.00;1.27;;;22.50;99.90;;;;;;4940114;28;20546;-53
2023/08/04 12:46:26;;;;;;;4.60;1.58;;;22.40;99.90;;;;;;4926780;28;20056;-53